createdAt,value
2022-12-17T00:01:57.408Z,72.14
2022-12-17T00:04:44.955Z,70.82
2022-12-17T00:07:30.860Z,69.75
2022-12-17T00:10:16.941Z,70.47
2022-12-17T00:13:05.355Z,71.52
2022-12-17T00:15:51.270Z,70.92
2022-12-17T00:18:37.259Z,70.12
2022-12-17T00:21:27.201Z,68.76
2022-12-17T00:24:13.281Z,68.34
2022-12-17T00:26:59.526Z,68.38
2022-12-17T00:29:45.712Z,68.64
2022-12-17T00:32:31.710Z,71.23
2022-12-17T00:35:17.661Z,70.62
2022-12-17T00:38:06.455Z,72.61
2022-12-17T00:40:52.667Z,73.41
2022-12-17T00:43:39.963Z,74.38
2022-12-17T00:46:25.859Z,75.30
2022-12-17T00:49:11.834Z,74.32
2022-12-17T00:51:57.574Z,74.57
2022-12-17T00:54:44.685Z,72.94
2022-12-17T00:57:30.632Z,70.33
2022-12-17T01:00:16.644Z,68.75
2022-12-17T01:03:07.291Z,69.22
2022-12-17T01:05:53.208Z,69.21
2022-12-17T01:08:39.685Z,70.58
2022-12-17T01:11:26.818Z,69.73
2022-12-17T01:14:12.514Z,68.30
2022-12-17T01:17:01.205Z,67.58
2022-12-17T01:19:46.541Z,67.43
2022-12-17T01:22:32.247Z,67.54
2022-12-17T01:25:18.912Z,68.15
2022-12-17T01:28:09.605Z,69.12
2022-12-17T01:30:56.352Z,69.50
2022-12-17T01:33:42.601Z,70.57
2022-12-17T01:36:28.581Z,71.55
2022-12-17T01:39:30.276Z,72.85
2022-12-17T01:42:15.970Z,72.76
2022-12-17T01:45:12.036Z,73.42
2022-12-17T01:48:02.233Z,73.75
2022-12-17T01:50:52.654Z,71.68
2022-12-17T01:53:43.077Z,69.12
2022-12-17T01:56:30.051Z,68.56
2022-12-17T01:59:17.144Z,68.61
2022-12-17T02:02:04.485Z,69.28
2022-12-17T02:04:51.014Z,69.76
2022-12-17T02:08:06.859Z,70.17
2022-12-17T02:11:02.281Z,69.84
2022-12-17T02:13:54.846Z,69.83
2022-12-17T02:16:49.703Z,69.19
2022-12-17T02:19:49.846Z,70.04
2022-12-17T02:22:53.029Z,69.64
2022-12-17T02:25:47.160Z,69.12
2022-12-17T02:28:34.705Z,68.10
2022-12-17T02:31:33.517Z,68.17
2022-12-17T02:34:20.290Z,68.39
2022-12-17T02:37:08.706Z,69.27
2022-12-17T02:39:56.817Z,69.51
2022-12-17T02:42:45.287Z,70.23
2022-12-17T02:45:33.992Z,70.16
2022-12-17T02:48:20.960Z,70.08
2022-12-17T02:51:07.414Z,68.77
2022-12-17T02:53:53.905Z,69.49
2022-12-17T02:56:42.193Z,67.96
2022-12-17T02:59:28.365Z,67.31
2022-12-17T03:02:27.591Z,67.09
2022-12-17T03:05:42.927Z,67.22
2022-12-17T03:08:19.895Z,68.18
2022-12-17T03:11:05.731Z,68.95
2022-12-17T03:13:51.602Z,69.91
2022-12-17T03:16:46.548Z,71.15
2022-12-17T03:19:33.571Z,70.63
2022-12-17T03:22:19.734Z,70.48
2022-12-17T03:25:01.884Z,70.87
2022-12-17T03:27:47.683Z,71.24
2022-12-17T03:30:48.862Z,68.87
2022-12-17T03:33:35.660Z,69.62
2022-12-17T03:36:23.741Z,68.51
2022-12-17T03:39:09.639Z,69.20
2022-12-17T03:41:55.612Z,69.48
2022-12-17T03:44:41.541Z,70.49
2022-12-17T03:47:27.609Z,71.98
2022-12-17T03:50:14.744Z,73.20
2022-12-17T03:53:01.841Z,72.46
2022-12-17T03:55:47.917Z,71.05
2022-12-17T03:58:33.818Z,69.89
2022-12-17T04:01:19.800Z,69.78
2022-12-17T04:04:17.245Z,70.59
2022-12-17T04:07:02.924Z,70.64
2022-12-17T04:09:50.013Z,69.23
2022-12-17T04:12:36.067Z,69.49
2022-12-17T04:15:22.220Z,70.05
2022-12-17T04:18:08.440Z,70.23
2022-12-17T04:20:54.389Z,70.92
2022-12-17T04:23:40.264Z,70.74
2022-12-17T04:26:27.147Z,72.00
2022-12-17T04:29:13.033Z,71.35
2022-12-17T04:31:59.163Z,71.06
2022-12-17T04:34:45.179Z,71.61
2022-12-17T04:37:31.048Z,71.03
2022-12-17T04:40:17.064Z,70.01
2022-12-17T04:43:07.236Z,68.29
2022-12-17T04:45:53.242Z,69.08
2022-12-17T04:48:42.452Z,68.98
2022-12-17T04:51:27.631Z,67.53
2022-12-17T04:54:13.092Z,67.54
2022-12-17T04:56:59.250Z,68.29
2022-12-17T04:59:46.304Z,68.77
2022-12-17T05:02:32.318Z,68.22
2022-12-17T05:05:18.199Z,69.58
2022-12-17T05:08:13.776Z,69.20
2022-12-17T05:10:59.779Z,68.73
2022-12-17T05:13:45.743Z,69.50
2022-12-17T05:16:33.059Z,69.81
2022-12-17T05:19:19.079Z,69.21
2022-12-17T05:22:04.940Z,69.64
2022-12-17T05:24:50.924Z,70.05
2022-12-17T05:27:36.913Z,70.43
2022-12-17T05:30:23.712Z,70.06
2022-12-17T05:33:18.570Z,70.10
2022-12-17T05:36:04.485Z,70.80
2022-12-17T05:38:50.598Z,70.85
2022-12-17T05:41:36.440Z,70.81
2022-12-17T05:44:22.262Z,71.53
2022-12-17T05:47:08.275Z,70.74
2022-12-17T05:50:03.350Z,70.34
2022-12-17T05:52:49.528Z,70.32
2022-12-17T05:55:36.440Z,70.90
2022-12-17T05:58:24.004Z,70.71
2022-12-17T06:01:13.942Z,70.40
2022-12-17T06:03:59.922Z,70.02
2022-12-17T06:06:46.981Z,71.49
2022-12-17T06:09:32.942Z,71.33
2022-12-17T06:12:18.928Z,70.48
2022-12-17T06:15:04.998Z,69.98
2022-12-17T06:17:51.056Z,69.02
2022-12-17T06:20:37.034Z,68.09
2022-12-17T06:23:26.663Z,67.87
2022-12-17T06:26:13.200Z,67.51
2022-12-17T06:28:59.069Z,68.27
2022-12-17T06:31:45.166Z,67.93
2022-12-17T06:34:27.582Z,68.59
2022-12-17T06:37:13.305Z,69.08
2022-12-17T06:40:00.451Z,69.06
2022-12-17T06:42:46.443Z,69.71
2022-12-17T06:45:32.300Z,68.87
2022-12-17T06:48:22.231Z,69.03
2022-12-17T06:51:08.070Z,68.42
2022-12-17T06:53:54.060Z,70.20
2022-12-17T06:56:41.271Z,68.79
2022-12-17T06:59:27.216Z,66.51
2022-12-17T07:02:13.495Z,66.58
2022-12-17T07:04:59.765Z,65.50
2022-12-17T07:07:45.767Z,65.67
2022-12-17T07:10:31.807Z,67.40
2022-12-17T07:13:25.044Z,66.65
2022-12-17T07:16:11.026Z,65.75
2022-12-17T07:18:57.045Z,65.76
2022-12-17T07:21:44.501Z,66.09
2022-12-17T07:24:30.658Z,67.35
2022-12-17T07:27:16.509Z,68.79
2022-12-17T07:30:03.943Z,67.89
2022-12-17T07:32:49.773Z,70.49
2022-12-17T07:35:35.674Z,69.81
2022-12-17T07:38:23.653Z,69.31
2022-12-17T07:41:09.584Z,69.60
2022-12-17T07:43:55.483Z,68.67
2022-12-17T07:46:43.395Z,69.32
2022-12-17T07:49:29.363Z,69.15
2022-12-17T07:52:15.277Z,71.19
2022-12-17T07:55:01.196Z,72.72
2022-12-17T07:57:47.221Z,71.76
2022-12-17T08:00:34.191Z,70.84
2022-12-17T08:03:21.632Z,70.83
2022-12-17T08:06:10.802Z,70.16
2022-12-17T08:08:56.716Z,68.89
2022-12-17T08:11:42.835Z,68.46
2022-12-17T08:14:28.688Z,68.87
2022-12-17T08:17:14.589Z,68.50
2022-12-17T08:20:02.001Z,68.29
2022-12-17T08:22:47.903Z,69.32
2022-12-17T08:25:33.945Z,69.95
2022-12-17T08:31:31.885Z,70.54
2022-12-17T08:34:17.855Z,70.82
2022-12-17T08:37:04.876Z,71.16
2022-12-17T08:39:50.806Z,70.81
2022-12-17T08:42:36.774Z,70.73
2022-12-17T08:45:23.455Z,70.57
2022-12-17T08:48:09.513Z,71.40
2022-12-17T08:50:55.285Z,70.78
2022-12-17T08:53:42.659Z,70.75
2022-12-17T08:56:28.669Z,71.24
2022-12-17T08:59:14.387Z,70.49
2022-12-17T09:02:03.163Z,70.54
2022-12-17T09:04:48.896Z,71.15
2022-12-17T09:07:34.789Z,72.12
2022-12-17T09:10:22.378Z,71.56
2022-12-17T09:13:08.467Z,71.69
2022-12-17T09:15:54.379Z,71.55
2022-12-17T09:18:41.348Z,70.64
2022-12-17T09:21:27.919Z,71.82
2022-12-17T09:24:13.993Z,72.32
2022-12-17T09:27:01.135Z,71.43
2022-12-17T09:29:47.082Z,71.42
2022-12-17T09:32:47.609Z,70.52
2022-12-17T09:35:33.992Z,71.40
2022-12-17T09:38:19.697Z,70.36
2022-12-17T09:41:13.720Z,70.62
2022-12-17T09:44:06.652Z,70.16
2022-12-17T09:46:59.770Z,71.22
2022-12-17T09:49:47.453Z,71.24
2022-12-17T09:52:39.732Z,70.94
2022-12-17T09:55:36.784Z,70.08
2022-12-17T09:58:23.004Z,71.43
2022-12-17T10:01:16.140Z,70.46
2022-12-17T10:04:04.584Z,71.29
2022-12-17T10:06:51.194Z,70.53
2022-12-17T10:09:37.962Z,70.50
2022-12-17T10:12:44.103Z,70.69
2022-12-17T10:15:34.292Z,70.86
2022-12-17T10:18:26.121Z,70.54
2022-12-17T10:21:16.421Z,70.25
2022-12-17T10:24:02.375Z,70.40
2022-12-17T10:26:50.707Z,70.60
2022-12-17T10:29:44.008Z,70.84
2022-12-17T10:32:40.884Z,69.56
2022-12-17T10:35:37.433Z,70.18
2022-12-17T10:38:31.183Z,69.79
2022-12-17T10:41:31.854Z,69.49
2022-12-17T10:44:17.588Z,69.31
2022-12-17T10:47:03.109Z,68.79
2022-12-17T10:49:48.827Z,68.99
2022-12-17T10:52:46.223Z,69.24
2022-12-17T10:55:42.378Z,69.61
2022-12-17T10:58:32.668Z,69.80
2022-12-17T11:01:24.434Z,69.63
2022-12-17T11:04:12.333Z,68.89
2022-12-17T11:07:05.656Z,68.88
2022-12-17T11:10:07.019Z,68.09
2022-12-17T11:13:00.848Z,67.84
2022-12-17T11:15:54.099Z,65.91
2022-12-17T11:18:44.144Z,66.34
2022-12-17T11:21:34.193Z,66.25
2022-12-17T11:24:23.037Z,66.03
2022-12-17T11:27:14.007Z,66.60
2022-12-17T11:29:59.896Z,66.62
2022-12-17T11:33:16.395Z,67.78
2022-12-17T11:36:14.414Z,65.92
2022-12-17T11:39:11.354Z,65.54
2022-12-17T11:42:11.407Z,65.71
2022-12-17T11:45:10.520Z,66.28
2022-12-17T11:48:05.196Z,66.30
2022-12-17T11:51:01.392Z,65.23
2022-12-17T11:54:08.037Z,65.00
2022-12-17T11:56:58.683Z,63.72
2022-12-17T11:59:54.215Z,63.68
2022-12-17T12:03:04.249Z,62.63
2022-12-17T12:06:02.208Z,61.50
2022-12-17T12:08:52.724Z,61.90
2022-12-17T12:11:51.492Z,61.88
2022-12-17T12:14:50.781Z,62.00
2022-12-17T12:17:58.144Z,61.33
2022-12-17T12:21:29.563Z,60.41
2022-12-17T12:24:33.669Z,59.85
2022-12-17T12:27:31.005Z,59.63
2022-12-17T12:30:27.003Z,57.62
2022-12-17T12:33:22.058Z,58.54
2022-12-17T12:36:09.170Z,56.54
2022-12-17T12:38:59.176Z,56.47
2022-12-17T12:42:05.062Z,56.24
2022-12-17T12:45:00.396Z,56.26
2022-12-17T12:47:59.067Z,56.36
2022-12-17T12:50:53.755Z,55.11
2022-12-17T12:53:40.404Z,54.95
2022-12-17T12:56:45.885Z,54.01
2022-12-17T12:59:41.478Z,53.77
2022-12-17T13:02:43.508Z,54.49
2022-12-17T13:05:34.058Z,53.48
2022-12-17T13:08:21.140Z,53.24
2022-12-17T13:10:51.092Z,52.58
2022-12-17T13:13:32.827Z,51.72
2022-12-17T13:16:06.267Z,52.83
2022-12-17T13:18:40.355Z,52.04
2022-12-17T13:21:29.581Z,52.37
2022-12-17T13:23:58.995Z,52.22
2022-12-17T13:26:44.422Z,53.49
2022-12-17T13:29:24.259Z,52.79
2022-12-17T13:32:15.116Z,52.94
2022-12-17T13:35:10.555Z,53.79
2022-12-17T13:37:48.459Z,52.01
2022-12-17T13:40:35.522Z,50.34
2022-12-17T13:43:04.454Z,51.85
2022-12-17T13:45:35.779Z,49.44
2022-12-17T13:48:04.303Z,49.93
2022-12-17T13:50:34.689Z,51.41
2022-12-17T13:53:12.848Z,53.59
2022-12-17T13:55:52.171Z,51.64
2022-12-17T13:58:28.352Z,52.84
2022-12-17T14:01:08.087Z,51.66
2022-12-17T14:04:04.655Z,52.93
2022-12-17T14:06:29.059Z,52.49
2022-12-17T14:08:59.536Z,51.71
2022-12-17T14:11:46.089Z,50.21
2022-12-17T14:14:22.183Z,49.50
2022-12-17T14:16:51.137Z,50.81
2022-12-17T14:19:19.815Z,51.30
2022-12-17T14:21:48.597Z,50.97
2022-12-17T14:24:20.363Z,51.67
2022-12-17T14:26:50.939Z,47.62
2022-12-17T14:29:24.951Z,49.36
2022-12-17T14:31:56.501Z,46.37
2022-12-17T14:34:24.935Z,45.90
2022-12-17T14:36:58.784Z,43.96
2022-12-17T14:39:30.801Z,43.03
2022-12-17T14:42:28.707Z,42.08
2022-12-17T14:44:59.831Z,42.68
2022-12-17T14:47:30.900Z,42.51
2022-12-17T14:50:04.311Z,44.22
2022-12-17T14:52:40.934Z,46.15
2022-12-17T14:55:33.939Z,49.06
2022-12-17T14:58:21.142Z,52.21
2022-12-17T15:00:54.621Z,53.88
2022-12-17T15:03:27.560Z,56.30
2022-12-17T15:06:02.640Z,56.49
2022-12-17T15:08:34.719Z,57.52
2022-12-17T15:11:06.797Z,59.01
2022-12-17T15:13:35.053Z,59.05
2022-12-17T15:16:03.307Z,60.15
2022-12-17T15:18:31.545Z,61.04
2022-12-17T15:20:59.823Z,59.87
2022-12-17T15:23:28.151Z,60.06
2022-12-17T15:25:56.808Z,61.65
2022-12-17T15:28:26.370Z,63.26
2022-12-17T15:30:54.753Z,63.01
2022-12-17T15:33:23.114Z,64.02
2022-12-17T15:35:51.494Z,64.19
2022-12-17T15:38:19.723Z,65.21
2022-12-17T15:40:48.033Z,65.88
2022-12-17T15:43:15.931Z,66.04
2022-12-17T15:45:47.934Z,67.08
2022-12-17T15:48:18.523Z,66.97
2022-12-17T15:50:46.918Z,67.94
2022-12-17T15:53:15.468Z,65.52
2022-12-17T15:55:43.805Z,66.02
2022-12-17T15:58:13.905Z,67.01
2022-12-17T16:00:42.194Z,65.90
2022-12-17T16:03:12.013Z,65.60
2022-12-17T16:05:40.368Z,65.98
2022-12-17T16:08:08.642Z,66.25
2022-12-17T16:10:37.792Z,67.27
2022-12-17T16:13:06.239Z,68.71
2022-12-17T16:15:34.543Z,68.64
2022-12-17T16:18:04.563Z,67.95
2022-12-17T16:20:34.463Z,68.60
2022-12-17T16:23:02.699Z,67.69
2022-12-17T16:25:30.947Z,68.08
2022-12-17T16:27:59.191Z,69.78
2022-12-17T16:30:27.402Z,69.28
2022-12-17T16:32:59.421Z,69.72
2022-12-17T16:35:28.383Z,69.84
2022-12-17T16:37:57.974Z,69.88
2022-12-17T16:40:26.145Z,70.22
2022-12-17T16:42:54.332Z,72.25
2022-12-17T16:45:22.589Z,73.15
2022-12-17T16:47:51.075Z,73.67
2022-12-17T16:50:19.281Z,71.32
2022-12-17T16:52:47.673Z,70.45
2022-12-17T16:55:17.492Z,69.54
2022-12-17T16:57:48.559Z,68.74
2022-12-17T17:00:17.235Z,67.75
2022-12-17T17:02:51.442Z,68.50
2022-12-17T17:05:21.394Z,66.90
2022-12-17T17:07:49.680Z,66.50
2022-12-17T17:10:19.365Z,68.15
2022-12-17T17:12:47.588Z,69.51
2022-12-17T17:15:16.000Z,72.15
2022-12-17T17:17:54.375Z,70.51
2022-12-17T17:20:24.517Z,70.10
2022-12-17T17:22:52.759Z,69.42
2022-12-17T17:25:22.549Z,70.37
2022-12-17T17:27:50.820Z,70.83
2022-12-17T17:30:19.219Z,71.04
2022-12-17T17:32:47.441Z,71.64
2022-12-17T17:35:16.448Z,71.49
2022-12-17T17:37:44.722Z,72.94
2022-12-17T17:40:14.521Z,73.43
2022-12-17T17:42:48.696Z,73.23
2022-12-17T17:45:19.786Z,72.23
2022-12-17T17:47:48.051Z,72.58
2022-12-17T17:50:16.316Z,72.98
2022-12-17T17:52:44.502Z,73.80
2022-12-17T17:55:13.051Z,74.39
2022-12-17T17:57:41.262Z,75.44
2022-12-17T18:00:13.094Z,75.32
2022-12-17T18:02:41.455Z,75.70
2022-12-17T18:05:10.572Z,75.62
2022-12-17T18:07:38.816Z,74.46
2022-12-17T18:10:09.634Z,74.74
2022-12-17T18:12:55.604Z,73.11
2022-12-17T18:15:25.190Z,74.71
2022-12-17T18:17:53.403Z,73.69
2022-12-17T18:20:21.677Z,74.71
2022-12-17T18:22:50.560Z,72.24
2022-12-17T18:25:18.956Z,71.88
2022-12-17T18:27:47.212Z,70.98
2022-12-17T18:30:16.260Z,70.86
2022-12-17T18:32:46.119Z,71.33
2022-12-17T18:35:14.372Z,71.75
2022-12-17T18:37:42.815Z,70.29
2022-12-17T18:40:12.103Z,69.73
2022-12-17T18:42:59.008Z,69.38
2022-12-17T18:45:27.292Z,69.94
2022-12-17T18:47:56.913Z,69.81
2022-12-17T18:50:25.253Z,68.34
2022-12-17T18:52:53.505Z,69.92
2022-12-17T18:55:21.756Z,69.34
2022-12-17T18:57:50.092Z,69.88
2022-12-17T19:00:18.956Z,70.81
2022-12-17T19:02:47.295Z,71.22
2022-12-17T19:05:17.550Z,71.78
2022-12-17T19:07:45.761Z,70.75
2022-12-17T19:10:16.604Z,71.60
2022-12-17T19:12:45.454Z,70.55
2022-12-17T19:15:13.768Z,70.34
2022-12-17T19:17:41.999Z,70.43
2022-12-17T19:20:11.771Z,70.95
2022-12-17T19:22:41.394Z,70.85
2022-12-17T19:25:11.405Z,70.81
2022-12-17T19:27:40.487Z,70.44
2022-12-17T19:30:13.857Z,69.70
2022-12-17T19:32:42.438Z,70.18
2022-12-17T19:35:11.071Z,69.95
2022-12-17T19:37:39.655Z,70.06
2022-12-17T19:40:11.081Z,69.62
2022-12-17T19:42:39.369Z,70.51
2022-12-17T19:45:09.104Z,70.91
2022-12-17T19:47:37.332Z,72.33
2022-12-17T19:50:07.009Z,72.38
2022-12-17T19:52:35.329Z,73.10
2022-12-17T19:55:03.902Z,75.61
2022-12-17T19:57:36.404Z,75.95
2022-12-17T20:00:07.506Z,76.58
2022-12-17T20:02:41.206Z,77.27
2022-12-17T20:05:11.123Z,77.47
2022-12-17T20:07:41.187Z,80.81
2022-12-17T20:10:10.102Z,80.67
2022-12-17T20:12:39.673Z,79.47
2022-12-17T20:15:08.727Z,79.18
2022-12-17T20:17:36.988Z,78.22
2022-12-17T20:20:06.155Z,77.16
2022-12-17T20:22:34.432Z,74.76
2022-12-17T20:25:04.884Z,74.44
2022-12-17T20:27:33.215Z,71.94
2022-12-17T20:30:02.833Z,70.50
2022-12-17T20:32:31.122Z,72.54
2022-12-17T20:35:00.762Z,70.74
2022-12-17T20:37:29.052Z,72.01
2022-12-17T20:39:57.330Z,73.08
2022-12-17T20:42:25.620Z,71.56
2022-12-17T20:44:53.879Z,73.31
2022-12-17T20:47:23.519Z,74.94
2022-12-17T20:49:51.766Z,76.18
2022-12-17T20:52:20.339Z,75.02
2022-12-17T20:54:49.359Z,75.13
2022-12-17T20:57:17.713Z,75.95
2022-12-17T20:59:46.082Z,74.76
2022-12-17T21:02:19.109Z,74.42
2022-12-17T21:04:52.594Z,77.11
2022-12-17T21:07:22.444Z,74.75
2022-12-17T21:09:50.692Z,71.37
2022-12-17T21:12:20.314Z,69.34
2022-12-17T21:14:48.718Z,68.49
2022-12-17T21:17:17.008Z,69.87
2022-12-17T21:19:45.274Z,69.74
2022-12-17T21:22:14.990Z,68.95
2022-12-17T21:24:43.296Z,68.72
2022-12-17T21:27:14.925Z,68.73
2022-12-17T21:29:43.535Z,68.46
2022-12-17T21:32:11.925Z,69.93
2022-12-17T21:34:40.840Z,70.56
2022-12-17T21:37:11.095Z,70.98
2022-12-17T21:39:40.966Z,73.51
2022-12-17T21:42:27.318Z,74.97
2022-12-17T21:44:55.598Z,74.33
2022-12-17T21:47:24.055Z,71.69
2022-12-17T21:49:52.305Z,71.37
2022-12-17T21:52:20.696Z,70.92
2022-12-17T21:54:50.294Z,71.14
2022-12-17T21:57:18.502Z,71.20
2022-12-17T21:59:46.833Z,70.41
2022-12-17T22:02:15.771Z,69.80
2022-12-17T22:04:44.294Z,68.93
2022-12-17T22:07:15.032Z,68.21
2022-12-17T22:09:52.767Z,70.09
2022-12-17T22:12:52.313Z,71.65
2022-12-17T22:15:20.727Z,72.37
2022-12-17T22:17:49.845Z,73.56
2022-12-17T22:20:18.235Z,73.54
2022-12-17T22:22:46.775Z,74.55
2022-12-17T22:25:15.194Z,74.13
2022-12-17T22:27:44.954Z,74.68
2022-12-17T22:30:35.335Z,75.18
2022-12-17T22:33:17.435Z,77.64
2022-12-17T22:36:18.282Z,78.20
2022-12-17T22:42:37.913Z,79.25
2022-12-17T22:44:49.154Z,82.25
2022-12-17T22:44:51.283Z,82.89
2022-12-17T22:47:21.327Z,83.37
2022-12-17T22:49:49.624Z,83.74
2022-12-17T22:52:18.914Z,85.08
2022-12-17T22:54:48.896Z,86.26
2022-12-17T22:57:36.024Z,85.97
2022-12-17T23:00:15.827Z,85.01
2022-12-17T23:02:44.199Z,84.51
2022-12-17T23:05:12.523Z,85.20
2022-12-17T23:07:40.851Z,85.87
2022-12-17T23:10:10.325Z,85.96
2022-12-17T23:12:54.352Z,84.15
2022-12-17T23:15:30.428Z,84.18
2022-12-17T23:18:01.970Z,85.88
2022-12-17T23:20:33.343Z,84.81
2022-12-17T23:23:02.445Z,84.83
2022-12-17T23:25:31.307Z,83.91
2022-12-17T23:27:59.638Z,84.42
2022-12-17T23:30:29.488Z,85.62
2022-12-17T23:32:57.766Z,87.90
2022-12-17T23:35:26.616Z,87.94
2022-12-17T23:37:55.296Z,89.56
2022-12-17T23:40:23.606Z,90.38
2022-12-17T23:42:51.907Z,90.66
2022-12-17T23:45:20.391Z,91.84
2022-12-17T23:47:50.014Z,92.59
2022-12-17T23:50:18.508Z,92.12
2022-12-17T23:52:46.724Z,92.18
2022-12-17T23:55:15.152Z,93.34
2022-12-17T23:57:43.818Z,91.70
